Time;durP1;ratioP1;P1;durP2;ratioP2;P2;SDS_P1;SDS_P2;PMS_P1;PMS_P2;Temp;Humidity;BMP_temperature;BMP_pressure;BME280_temperature;BME280_humidity;BME280_pressure;Samples;Min_cycle;Max_cycle;Signal;HPM_P1;HPM_P2
2023/09/12 00:00:55;;;;;;;17.70;6.60;;;;;;;15.23;50.79;100624.61;125197;1099;101986;-83
2023/09/12 00:03:35;;;;;;;20.73;7.10;;;;;;;15.25;51.01;100619.36;124817;1099;102015;-83
2023/09/12 00:06:04;;;;;;;18.53;6.73;;;;;;;15.26;51.27;100626.44;125115;1099;104249;-83
2023/09/12 00:08:33;;;;;;;21.77;7.17;;;;;;;15.25;50.60;100624.64;125354;1099;104226;-83
2023/09/12 00:11:03;;;;;;;18.07;7.00;;;;;;;15.22;51.70;100635.16;125526;1099;103130;-82
2023/09/12 00:13:32;;;;;;;20.03;7.03;;;;;;;15.21;50.86;100628.11;125438;1099;101913;-83
2023/09/12 00:16:05;;;;;;;20.40;6.77;;;;;;;15.14;51.10;100626.20;125973;1098;101716;-83
2023/09/12 00:18:34;;;;;;;20.23;6.90;;;;;;;15.10;51.03;100630.55;125400;1099;104169;-83
2023/09/12 00:21:03;;;;;;;20.53;6.47;;;;;;;15.02;51.52;100632.12;125489;1099;104224;-83
2023/09/12 00:23:32;;;;;;;20.43;7.53;;;;;;;14.95;51.52;100624.96;126014;1098;102877;-83
2023/09/12 00:26:00;;;;;;;20.23;6.80;;;;;;;14.91;51.76;100623.98;126000;1099;104274;-83
2023/09/12 00:28:33;;;;;;;15.35;6.00;;;;;;;14.86;51.47;100626.54;124820;1099;104287;-82
2023/09/12 00:31:02;;;;;;;21.50;6.87;;;;;;;14.84;51.83;100622.10;126367;1098;101769;-83
2023/09/12 00:33:30;;;;;;;15.40;5.80;;;;;;;14.78;51.60;100621.98;125025;1099;104163;-83
2023/09/12 00:35:59;;;;;;;15.67;5.57;;;;;;;14.69;52.25;100618.30;125428;1102;104188;-82
2023/09/12 00:38:29;;;;;;;21.93;6.10;;;;;;;14.63;52.07;100615.53;124759;1099;102214;-82
2023/09/12 00:40:58;;;;;;;17.83;5.87;;;;;;;14.66;51.97;100606.75;124793;1099;101932;-82
2023/09/12 00:43:27;;;;;;;17.17;5.90;;;;;;;14.64;52.48;100612.00;124821;1099;101839;-82
2023/09/12 00:45:55;;;;;;;23.47;6.20;;;;;;;14.62;52.19;100621.66;124920;1102;104211;-82
2023/09/12 00:48:25;;;;;;;15.13;6.03;;;;;;;14.58;52.93;100619.77;124777;1099;101916;-82
2023/09/12 00:50:55;;;;;;;16.20;5.77;;;;;;;14.57;52.82;100620.64;126000;1098;102032;-83
2023/09/12 00:53:24;;;;;;;17.03;6.47;;;;;;;14.53;52.84;100614.38;125593;1099;104545;-82
2023/09/12 00:55:56;;;;;;;14.80;5.73;;;;;;;14.49;52.87;100616.92;125486;1099;101795;-82
2023/09/12 00:58:27;;;;;;;16.47;6.70;;;;;;;14.43;53.08;100619.43;124981;1099;104194;-82
2023/09/12 01:00:57;;;;;;;17.60;6.13;;;;;;;14.37;52.78;100618.45;124834;1099;101951;-83
2023/09/12 01:03:27;;;;;;;17.03;6.33;;;;;;;14.35;52.84;100622.81;124924;1099;104280;-82
2023/09/12 01:05:59;;;;;;;22.93;6.93;;;;;;;14.29;53.49;100629.68;127566;1098;101134;-82
2023/09/12 01:08:28;;;;;;;16.20;6.43;;;;;;;14.20;53.39;100625.11;125825;1098;104320;-83
2023/09/12 01:10:58;;;;;;;16.23;6.43;;;;;;;14.10;53.33;100629.28;124949;1102;102794;-82
2023/09/12 01:13:28;;;;;;;19.63;6.77;;;;;;;13.99;53.85;100634.31;124794;1099;104281;-82
2023/09/12 01:15:57;;;;;;;16.40;6.90;;;;;;;13.93;54.25;100628.88;124737;1099;104195;-82
2023/09/12 01:18:25;;;;;;;19.90;7.10;;;;;;;13.91;53.88;100625.30;124979;1099;101859;-82
2023/09/12 01:21:17;;;;;;;17.87;6.83;;;;;;;13.91;54.28;100630.58;124923;1099;104179;-83
2023/09/12 01:24:00;;;;;;;16.37;6.00;;;;;;;13.85;54.00;100625.14;124960;1099;104249;-83
2023/09/12 01:26:49;;;;;;;17.55;7.08;;;;;;;13.81;54.57;100625.95;124819;1099;104185;-82
2023/09/12 01:29:21;;;;;;;16.97;6.17;;;;;;;13.77;54.98;100629.35;124875;1099;101954;-82
2023/09/12 01:31:51;;;;;;;17.90;7.00;;;;;;;13.72;54.35;100637.15;124912;1099;101903;-81
2023/09/12 01:34:20;;;;;;;20.33;6.93;;;;;;;13.64;54.70;100636.07;124715;1099;102520;-82
2023/09/12 01:36:51;;;;;;;19.13;6.57;;;;;;;13.58;55.32;100639.44;125519;1098;101813;-83
2023/09/12 01:39:20;;;;;;;17.97;6.90;;;;;;;13.52;55.68;100639.27;124758;1099;104364;-82
2023/09/12 01:41:51;;;;;;;15.57;6.57;;;;;;;13.45;55.65;100640.87;124834;1099;104169;-82
2023/09/12 01:44:22;;;;;;;17.20;6.40;;;;;;;13.41;55.21;100640.75;125528;1099;102049;-82
2023/09/12 01:46:54;;;;;;;14.73;6.47;;;;;;;13.37;55.69;100644.14;126418;1098;104118;-82
2023/09/12 01:49:25;;;;;;;19.90;6.57;;;;;;;13.35;56.18;100643.22;125013;1099;101807;-82
2023/09/12 01:51:55;;;;;;;16.77;6.17;;;;;;;13.33;56.59;100645.81;125348;1099;104250;-83
2023/09/12 01:54:24;;;;;;;15.03;6.30;;;;;;;13.29;56.33;100644.81;125320;1099;104186;-83
2023/09/12 01:56:55;;;;;;;15.90;6.07;;;;;;;13.24;56.66;100638.50;124805;1099;104357;-82
2023/09/12 01:59:24;;;;;;;18.07;6.40;;;;;;;13.16;56.75;100642.69;125440;1099;104284;-82
2023/09/12 02:01:53;;;;;;;17.57;6.70;;;;;;;13.09;57.44;100643.39;125397;1099;104300;-82
2023/09/12 02:04:21;;;;;;;16.27;6.40;;;;;;;13.04;56.79;100648.52;125037;1099;101903;-83
2023/09/12 02:06:50;;;;;;;15.90;6.40;;;;;;;13.00;57.04;100638.74;124936;1099;104370;-82
2023/09/12 02:09:21;;;;;;;22.03;6.67;;;;;;;13.07;56.73;100642.43;124734;1100;104208;-81
2023/09/12 02:11:51;;;;;;;14.93;6.10;;;;;;;13.09;56.72;100646.02;125277;1099;103513;-81
2023/09/12 02:14:19;;;;;;;19.73;6.00;;;;;;;13.07;56.93;100645.98;124966;1099;104076;-82
2023/09/12 02:16:48;;;;;;;18.40;6.60;;;;;;;13.06;57.50;100640.66;125493;1099;101906;-81
2023/09/12 02:19:17;;;;;;;16.63;5.93;;;;;;;13.09;57.51;100643.39;125498;1099;101878;-81
2023/09/12 02:21:45;;;;;;;15.00;5.90;;;;;;;13.06;57.47;100641.55;125234;1099;104307;-83
2023/09/12 02:24:14;;;;;;;19.73;6.20;;;;;;;13.06;57.62;100638.91;125789;1099;102076;-82
2023/09/12 02:26:45;;;;;;;14.50;6.07;;;;;;;12.98;57.57;100636.91;124835;1100;104310;-81
2023/09/12 02:29:13;;;;;;;18.57;6.20;;;;;;;12.92;58.04;100640.28;125187;1099;104182;-81
2023/09/12 02:31:42;;;;;;;14.57;6.27;;;;;;;12.93;57.95;100642.04;124824;1099;104223;-81
2023/09/12 02:34:10;;;;;;;16.97;6.77;;;;;;;12.92;57.64;100638.52;125567;1099;104274;-81
2023/09/12 02:36:39;;;;;;;16.50;6.50;;;;;;;12.87;58.13;100641.86;125517;1099;102318;-81
2023/09/12 02:39:08;;;;;;;18.87;5.47;;;;;;;12.84;57.95;100640.05;125633;1098;101732;-82
2023/09/12 02:41:36;;;;;;;14.67;6.00;;;;;;;12.83;58.43;100640.02;125324;1099;104175;-83
2023/09/12 02:44:06;;;;;;;16.63;6.20;;;;;;;12.85;58.46;100646.20;125342;1099;102237;-81
2023/09/12 02:46:35;;;;;;;15.13;6.23;;;;;;;12.92;58.43;100643.80;124949;1102;104284;-82
2023/09/12 02:49:03;;;;;;;13.47;6.00;;;;;;;13.02;58.26;100646.69;125253;1099;104121;-82
2023/09/12 02:51:32;;;;;;;16.33;6.30;;;;;;;12.98;58.51;100648.35;125300;1099;104217;-82
2023/09/12 02:54:01;;;;;;;18.87;5.93;;;;;;;12.89;58.41;100654.23;124948;1099;102144;-83
2023/09/12 02:56:30;;;;;;;16.23;5.87;;;;;;;12.87;58.71;100648.05;124729;1099;104246;-82
2023/09/12 02:58:59;;;;;;;16.00;6.30;;;;;;;12.82;58.75;100657.53;125199;1099;104651;-81
2023/09/12 03:01:28;;;;;;;14.70;6.13;;;;;;;12.76;58.81;100662.62;125274;1099;104242;-83
2023/09/12 03:03:57;;;;;;;16.60;6.27;;;;;;;12.74;58.96;100659.94;125192;1099;101925;-81
2023/09/12 03:06:28;;;;;;;17.67;6.20;;;;;;;12.75;58.82;100660.86;125209;1099;104284;-82
2023/09/12 03:08:57;;;;;;;15.97;6.00;;;;;;;12.73;58.95;100660.81;124848;1102;104303;-83
2023/09/12 03:11:27;;;;;;;13.40;5.90;;;;;;;12.75;59.16;100660.86;125272;1099;101785;-82
2023/09/12 03:13:56;;;;;;;15.63;5.83;;;;;;;12.84;59.24;100657.58;124876;1099;102223;-83
2023/09/12 03:16:25;;;;;;;17.67;6.80;;;;;;;12.92;59.13;100663.98;125237;1099;101820;-82
2023/09/12 03:18:54;;;;;;;14.47;5.83;;;;;;;12.95;59.19;100659.68;124877;1099;104172;-83
2023/09/12 03:21:24;;;;;;;14.80;5.70;;;;;;;12.99;59.08;100659.77;124713;1103;102410;-83
2023/09/12 03:23:53;;;;;;;18.00;6.00;;;;;;;12.98;58.82;100661.52;124857;1099;101808;-83
2023/09/12 03:26:21;;;;;;;13.13;5.83;;;;;;;12.90;59.10;100663.94;124928;1099;104076;-83
2023/09/12 03:28:51;;;;;;;17.47;6.57;;;;;;;12.82;59.26;100668.06;125194;1099;101990;-82
2023/09/12 03:31:20;;;;;;;18.87;6.50;;;;;;;12.76;59.46;100660.90;125069;1099;104253;-83
2023/09/12 03:33:50;;;;;;;15.47;6.57;;;;;;;12.73;59.60;100667.80;125077;1102;104204;-83
2023/09/12 03:36:19;;;;;;;16.83;6.17;;;;;;;12.74;59.27;100670.47;124846;1097;101814;-83
2023/09/12 03:38:48;;;;;;;18.07;6.17;;;;;;;12.66;59.64;100661.46;124809;1099;102382;-84
2023/09/12 03:41:17;;;;;;;15.73;6.20;;;;;;;12.63;60.15;100676.28;125432;1102;101875;-84
2023/09/12 03:43:46;;;;;;;16.50;7.00;;;;;;;12.58;59.67;100671.76;125458;1102;102199;-84
2023/09/12 03:46:15;;;;;;;20.30;6.67;;;;;;;12.56;59.82;100672.58;125883;1099;104208;-84
2023/09/12 03:48:43;;;;;;;18.10;6.37;;;;;;;12.57;60.07;100676.98;125419;1099;102040;-83
2023/09/12 03:51:12;;;;;;;20.93;6.27;;;;;;;12.60;59.90;100671.81;125731;1099;102948;-83
2023/09/12 03:53:41;;;;;;;17.10;6.70;;;;;;;12.64;59.86;100683.34;125527;1099;104188;-84
2023/09/12 03:56:12;;;;;;;17.60;6.23;;;;;;;12.69;60.18;100679.10;125239;1099;104281;-87
2023/09/12 03:58:41;;;;;;;17.90;6.43;;;;;;;12.74;60.24;100681.00;125805;1102;101874;-83
2023/09/12 04:01:10;;;;;;;21.67;6.50;;;;;;;12.82;60.09;100678.59;124852;1102;102016;-85
2023/09/12 04:03:38;;;;;;;18.60;6.47;;;;;;;12.87;60.36;100677.02;125391;1099;102762;-87
2023/09/12 04:06:07;;;;;;;15.47;6.63;;;;;;;12.91;60.28;100683.25;125771;1099;104185;-84
2023/09/12 04:08:36;;;;;;;19.77;6.50;;;;;;;12.97;60.53;100675.53;125247;1099;101896;-84
2023/09/12 04:11:04;;;;;;;18.93;6.17;;;;;;;13.03;60.27;100682.73;125759;1099;104220;-85
2023/09/12 04:13:33;;;;;;;20.10;6.50;;;;;;;13.09;60.64;100682.91;124809;1102;104120;-84
2023/09/12 04:16:02;;;;;;;21.60;7.00;;;;;;;13.11;60.73;100681.19;124880;1099;101868;-86
2023/09/12 04:18:34;;;;;;;19.30;6.70;;;;;;;13.13;60.97;100685.67;125499;1102;104260;-88
2023/09/12 04:21:03;;;;;;;16.17;6.63;;;;;;;13.13;60.77;100685.67;124956;1099;104239;-86
2023/09/12 04:23:31;;;;;;;16.87;6.60;;;;;;;13.13;60.59;100690.02;125706;1099;102114;-85
2023/09/12 04:26:03;;;;;;;16.70;6.37;;;;;;;13.16;61.19;100694.50;125937;1099;104156;-87
2023/09/12 04:28:34;;;;;;;21.57;6.40;;;;;;;13.20;61.10;100685.81;125411;1099;102309;-87
2023/09/12 04:31:04;;;;;;;20.93;6.97;;;;;;;13.30;61.08;100686.11;125481;1102;101901;-87
2023/09/12 04:33:32;;;;;;;17.60;6.40;;;;;;;13.46;61.23;100690.11;125416;1099;104175;-87
2023/09/12 04:36:02;;;;;;;18.17;6.83;;;;;;;13.61;61.11;100680.81;125232;1102;101967;-89
2023/09/12 04:38:32;;;;;;;19.13;7.13;;;;;;;13.75;61.07;100686.45;125420;1099;102848;-86
2023/09/12 04:41:04;;;;;;;19.73;7.37;;;;;;;13.88;60.86;100688.53;125410;1099;104197;-85
2023/09/12 04:43:33;;;;;;;16.13;6.73;;;;;;;13.98;61.53;100685.28;125600;1099;102071;-81
2023/09/12 04:46:02;;;;;;;20.17;7.27;;;;;;;14.03;61.09;100681.00;125418;1099;117915;-82
2023/09/12 04:48:32;;;;;;;21.67;7.07;;;;;;;14.08;61.03;100688.14;124738;1102;102102;-81
2023/09/12 04:51:32;;;;;;;20.00;7.23;;;;;;;14.12;60.51;100690.02;125992;1099;104255;-82
2023/09/12 04:54:43;;;;;;;22.50;7.70;;;;;;;14.18;61.21;100685.77;125687;1099;104169;-81
2023/09/12 04:57:12;;;;;;;25.00;7.80;;;;;;;14.24;61.24;100678.84;125468;1102;104156;-86
2023/09/12 04:59:41;;;;;;;27.17;8.57;;;;;;;14.29;61.45;100687.75;125955;1099;102001;-85
2023/09/12 05:02:15;;;;;;;20.40;7.90;;;;;;;14.38;60.43;100685.33;125650;1099;101951;-86
2023/09/12 05:04:43;;;;;;;;;;;;;;;14.38;60.12;100690.61;125610;1099;104061;-88
2023/09/12 05:07:11;;;;;;;24.40;7.20;;;;;;;14.42;61.04;100692.47;126290;1098;104253;-86
2023/09/12 05:09:40;;;;;;;27.07;9.03;;;;;;;14.45;61.44;100697.83;125635;1099;101859;-78
2023/09/12 05:12:09;;;;;;;24.97;9.07;;;;;;;14.49;61.44;100699.69;124849;1099;104162;-78
2023/09/12 05:14:38;;;;;;;25.30;8.70;;;;;;;14.55;61.09;100702.47;125560;1099;101919;-79
2023/09/12 05:17:07;;;;;;;24.07;8.50;;;;;;;14.58;60.54;100698.11;125403;1100;102078;-76
2023/09/12 05:19:36;;;;;;;23.77;8.93;;;;;;;14.61;60.44;100700.84;124712;1100;101859;-76
2023/09/12 05:22:05;;;;;;;24.23;9.03;;;;;;;14.62;61.31;100705.28;125900;1098;104272;-78
2023/09/12 05:24:34;;;;;;;26.05;8.85;;;;;;;14.61;61.50;100709.66;124936;1100;102003;-81
2023/09/12 05:27:09;;;;;;;25.63;9.43;;;;;;;14.62;60.71;100706.16;125610;1099;101971;-81
2023/09/12 05:29:38;;;;;;;28.43;9.53;;;;;;;14.64;60.66;100714.13;124585;1099;104153;-76
2023/09/12 05:32:10;;;;;;;30.10;9.30;;;;;;;14.68;61.33;100710.70;125932;1099;104208;-81
2023/09/12 05:34:42;;;;;;;24.73;9.10;;;;;;;14.68;60.91;100711.58;125123;1099;102019;-78
2023/09/12 05:37:14;;;;;;;28.27;9.87;;;;;;;14.71;60.74;100713.41;125936;1098;104313;-79
2023/09/12 05:39:43;;;;;;;27.77;9.97;;;;;;;14.73;60.80;100709.92;124536;1102;104322;-81
2023/09/12 05:42:14;;;;;;;27.67;9.93;;;;;;;14.79;60.81;100718.84;125411;1102;102032;-80
2023/09/12 05:44:44;;;;;;;31.63;10.00;;;;;;;14.87;60.89;100714.63;125368;1099;101950;-78
2023/09/12 05:50:06;;;;;;;27.60;9.40;;;;;;;15.01;61.69;100715.81;125591;1099;101979;-80
2023/09/12 05:52:39;;;;;;;34.70;10.63;;;;;;;15.08;60.76;100717.73;124891;1099;104169;-78
2023/09/12 05:55:09;;;;;;;28.57;10.17;;;;;;;15.17;61.24;100716.13;125469;1100;104185;-81
2023/09/12 05:57:56;;;;;;;33.47;10.37;;;;;;;15.25;61.06;100709.23;125471;1099;104079;-82
2023/09/12 06:01:02;;;;;;;26.97;9.60;;;;;;;15.36;61.16;100712.09;125866;1099;102336;-81
2023/09/12 06:03:35;;;;;;;36.50;10.43;;;;;;;15.45;60.70;100710.51;125596;1099;104262;-78
2023/09/12 06:06:10;;;;;;;28.00;10.13;;;;;;;15.53;60.54;100713.30;124992;1099;104195;-77
2023/09/12 06:08:40;;;;;;;27.63;10.83;;;;;;;15.63;61.32;100720.55;126109;1099;101892;-76
2023/09/12 06:11:10;;;;;;;26.27;10.33;;;;;;;15.73;60.72;100718.08;125402;1099;101844;-78
2023/09/12 06:13:43;;;;;;;31.17;9.97;;;;;;;15.79;61.27;100718.23;126381;1098;101836;-80
2023/09/12 06:16:38;;;;;;;26.10;9.93;;;;;;;15.87;61.24;100728.95;125764;1099;102005;-77
2023/09/12 06:19:08;;;;;;;30.47;10.23;;;;;;;15.92;61.41;100720.20;124480;1102;104176;-78
2023/09/12 06:21:39;;;;;;;29.20;9.93;;;;;;;16.00;61.15;100717.69;124871;1099;104296;-77
2023/09/12 06:24:24;;;;;;;28.97;10.43;;;;;;;16.10;61.35;100724.94;126056;1098;101740;-79
2023/09/12 06:26:59;;;;;;;31.35;10.15;;;;;;;16.23;60.67;100726.02;125226;1099;101884;-76
2023/09/12 06:29:36;;;;;;;27.00;9.87;;;;;;;16.36;61.29;100729.74;126304;1098;104227;-79
2023/09/12 06:32:07;;;;;;;24.50;9.43;;;;;;;16.50;60.69;100722.92;124821;1099;102173;-80
2023/09/12 06:34:39;;;;;;;32.50;10.20;;;;;;;16.65;60.43;100729.31;125134;1099;104162;-78
2023/09/12 06:37:11;;;;;;;25.13;10.03;;;;;;;16.78;61.18;100715.37;125928;1099;101836;-78
2023/09/12 06:39:59;;;;;;;32.50;10.40;;;;;;;16.92;60.83;100726.17;125044;1099;104188;-83
2023/09/12 06:42:32;;;;;;;26.90;10.63;;;;;;;17.07;60.70;100728.14;125510;1102;102376;-79
2023/09/12 06:45:15;;;;;;;26.07;10.83;;;;;;;17.21;60.21;100733.62;127073;1098;101994;-80
2023/09/12 06:47:47;;;;;;;24.93;9.73;;;;;;;17.36;60.23;100730.27;125549;1099;102150;-79
2023/09/12 06:50:17;;;;;;;23.90;10.63;;;;;;;17.50;60.66;100738.36;126614;1098;101781;-82
2023/09/12 06:53:03;;;;;;;30.30;10.43;;;;;;;17.64;60.32;100733.20;127001;1098;101759;-81
2023/09/12 06:56:01;;;;;;;;;;;;;;;;;;;;;
2023/09/12 06:58:57;;;;;;;33.83;9.57;;;;;;;17.95;59.92;100734.42;126353;1099;108173;-78
2023/09/12 07:01:35;;;;;;;28.03;10.10;;;;;;;18.11;59.84;100732.81;126302;1099;104194;-77
2023/09/12 07:04:15;;;;;;;29.27;9.90;;;;;;;18.25;59.79;100725.84;125414;1098;101931;-77
2023/09/12 07:07:06;;;;;;;26.33;10.00;;;;;;;18.44;59.87;100734.83;126054;1099;101893;-83
2023/09/12 07:09:44;;;;;;;26.17;9.40;;;;;;;18.63;59.76;100727.86;124744;1099;104102;-77
2023/09/12 07:12:28;;;;;;;35.78;10.43;;;;;;;18.82;59.33;100727.97;126081;1098;104070;-80
2023/09/12 07:18:19;;;;;;;21.90;7.25;;;;;;;19.33;59.89;100713.16;125720;1102;101997;-81
2023/09/12 07:21:12;;;;;;;16.90;7.33;;;;;;;19.63;59.92;100718.56;126539;1098;101687;-78
2023/09/12 07:24:08;;;;;;;;;;;;;;;;;;;;;
2023/09/12 07:26:53;;;;;;;22.17;6.53;;;;;;;20.16;59.31;100714.20;127284;1098;101757;-81
2023/09/12 07:29:24;;;;;;;15.87;6.33;;;;;;;20.39;58.74;100722.17;125428;1099;102091;-78
2023/09/12 07:32:45;;;;;;;19.17;6.10;;;;;;;20.58;58.95;100725.70;126447;1098;101867;-79
2023/09/12 07:35:23;;;;;;;14.20;5.73;;;;;;;20.89;58.92;100717.66;124739;1099;103385;-75
2023/09/12 07:38:06;;;;;;;13.77;5.23;;;;;;;21.09;58.74;100721.13;125124;1098;102697;-76
2023/09/12 07:40:39;;;;;;;10.77;4.73;;;;;;;21.29;58.58;100721.05;125169;1099;101938;-76
2023/09/12 07:43:15;;;;;;;14.20;5.30;;;;;;;21.43;57.62;100726.31;124359;1099;104175;-75
2023/09/12 07:45:49;;;;;;;12.63;5.23;;;;;;;21.59;57.61;100727.14;125956;1098;104702;-76
2023/09/12 07:48:19;;;;;;;11.63;4.83;;;;;;;21.71;57.89;100727.06;124917;1099;101897;-80
2023/09/12 07:50:51;;;;;;;11.65;4.80;;;;;;;21.89;57.34;100720.72;125920;1099;104160;-79
2023/09/12 07:53:24;;;;;;;;;;;;;;;22.04;55.74;100721.48;126477;1098;101883;-80
2023/09/12 07:56:21;;;;;;;11.87;4.60;;;;;;;22.16;56.28;100716.05;125611;1099;104194;-78
2023/09/12 07:59:15;;;;;;;14.40;5.55;;;;;;;22.33;56.07;100715.02;125846;1099;101784;-77
2023/09/12 08:01:45;;;;;;;12.33;4.63;;;;;;;22.51;55.26;100721.99;125695;1098;104267;-78
2023/09/12 08:04:14;;;;;;;11.43;4.50;;;;;;;22.61;54.90;100721.88;125787;1099;102419;-82
2023/09/12 08:06:53;;;;;;;11.00;4.33;;;;;;;22.74;54.48;100714.60;126435;1098;101777;-77
2023/09/12 08:09:52;;;;;;;8.43;4.20;;;;;;;22.86;54.43;100720.71;125397;1099;104180;-78
2023/09/12 08:12:24;;;;;;;10.35;4.37;;;;;;;23.00;53.97;100725.91;126089;1098;102316;-82
2023/09/12 08:15:00;;;;;;;12.55;4.60;;;;;;;23.13;53.32;100725.77;126624;1098;102020;-77
2023/09/12 08:17:31;;;;;;;12.17;4.50;;;;;;;23.24;52.96;100716.73;126477;1098;102187;-79
2023/09/12 08:20:13;;;;;;;11.60;4.50;;;;;;;23.34;51.68;100718.36;125304;1099;104111;-78
2023/09/12 08:22:51;;;;;;;11.37;4.50;;;;;;;23.47;51.94;100719.09;125270;1099;104278;-77
2023/09/12 08:25:21;;;;;;;11.30;4.93;;;;;;;23.53;50.42;100724.37;125022;1099;104146;-79
2023/09/12 08:27:50;;;;;;;10.67;4.90;;;;;;;23.63;50.67;100725.98;124756;1099;104166;-77
2023/09/12 08:30:19;;;;;;;11.73;4.30;;;;;;;23.70;50.47;100726.80;124886;1099;102655;-77
2023/09/12 08:32:50;;;;;;;13.87;4.77;;;;;;;23.80;49.99;100714.14;126062;1098;104095;-77
2023/09/12 08:35:31;;;;;;;10.07;4.40;;;;;;;23.87;49.62;100718.50;124833;1102;102023;-76
2023/09/12 08:38:04;;;;;;;14.87;4.90;;;;;;;23.94;49.77;100713.95;124401;1099;104176;-74
2023/09/12 08:40:35;;;;;;;9.50;4.60;;;;;;;23.98;49.27;100716.56;124610;1099;103391;-75
2023/09/12 08:43:06;;;;;;;10.90;4.23;;;;;;;24.02;48.62;100720.94;124859;1099;104338;-76
2023/09/12 08:45:49;;;;;;;;;;;;;;;;;;;;;
2023/09/12 08:48:32;;;;;;;14.23;4.43;;;;;;;23.98;48.17;100710.30;125731;1099;104185;-76
2023/09/12 08:51:07;;;;;;;12.30;4.85;;;;;;;24.08;48.34;100708.37;125036;1099;110390;-80
2023/09/12 08:53:39;;;;;;;8.30;4.30;;;;;;;24.19;47.80;100703.70;125588;1099;104226;-76
2023/09/12 08:56:18;;;;;;;9.13;4.67;;;;;;;24.29;46.71;100707.97;124621;1099;104226;-72
2023/09/12 08:58:47;;;;;;;8.87;3.83;;;;;;;24.37;46.60;100705.16;124599;1099;102815;-76
2023/09/12 09:01:18;;;;;;;7.63;3.90;;;;;;;24.45;46.27;100705.92;124929;1099;102355;-75
2023/09/12 09:03:47;;;;;;;7.15;3.80;;;;;;;24.59;46.37;100700.34;126489;1098;104185;-81
2023/09/12 09:06:19;;;;;;;12.03;4.00;;;;;;;24.67;46.07;100698.37;126548;1098;101936;-80
2023/09/12 09:08:53;;;;;;;8.13;4.00;;;;;;;24.72;45.84;100706.34;125296;1099;102195;-75
2023/09/12 09:11:27;;;;;;;6.73;3.40;;;;;;;24.81;45.54;100697.20;125649;1099;104181;-77
2023/09/12 09:14:06;;;;;;;8.63;3.57;;;;;;;24.96;43.90;100690.66;124676;1099;104211;-74
2023/09/12 09:16:44;;;;;;;9.47;3.90;;;;;;;25.08;43.52;100691.27;124419;1099;104163;-76
2023/09/12 09:19:30;;;;;;;7.13;3.33;;;;;;;25.18;43.61;100686.61;125287;1099;101980;-78
2023/09/12 09:22:07;;;;;;;7.60;3.20;;;;;;;25.28;42.56;100689.96;124727;1099;117625;-78
2023/09/12 09:24:41;;;;;;;9.10;3.30;;;;;;;25.35;42.34;100693.42;124755;1099;101977;-79
2023/09/12 09:27:39;;;;;;;5.20;3.30;;;;;;;25.38;41.82;100694.22;125640;1099;104270;-87
2023/09/12 09:30:20;;;;;;;7.83;3.00;;;;;;;25.45;41.59;100695.86;127388;1098;101674;-86
2023/09/12 09:32:55;;;;;;;10.50;3.57;;;;;;;25.47;41.27;100698.52;126164;1099;104101;-76
2023/09/12 09:35:25;;;;;;;5.87;3.37;;;;;;;25.50;40.50;100692.20;125455;1099;102282;-79
2023/09/12 09:37:58;;;;;;;9.20;3.13;;;;;;;25.60;40.54;100688.36;126348;1098;104352;-81
2023/09/12 09:40:39;;;;;;;4.27;2.83;;;;;;;25.51;38.97;100688.57;125322;1099;104182;-79
2023/09/12 09:43:11;;;;;;;7.93;3.07;;;;;;;25.62;39.34;100683.86;125060;1099;104341;-78
2023/09/12 09:45:45;;;;;;;8.63;3.33;;;;;;;25.72;39.17;100692.57;124682;1099;104178;-78
2023/09/12 09:48:26;;;;;;;7.57;3.27;;;;;;;25.76;38.60;100689.77;124836;1099;101929;-79
2023/09/12 09:51:02;;;;;;;8.70;3.37;;;;;;;25.75;38.12;100682.62;125889;1098;102060;-77
2023/09/12 09:53:39;;;;;;;4.90;2.90;;;;;;;25.76;37.91;100684.40;125429;1099;104172;-78
2023/09/12 09:56:28;;;;;;;7.43;3.23;;;;;;;25.84;37.95;100687.77;125307;1099;101984;-86
2023/09/12 09:59:01;;;;;;;5.00;3.07;;;;;;;25.91;36.84;100682.25;125990;1099;102022;-83
2023/09/12 10:01:34;;;;;;;11.00;3.20;;;;;;;25.98;36.81;100681.22;127153;1098;104249;-82
2023/09/12 10:04:20;;;;;;;8.15;3.45;;;;;;;26.01;36.72;100681.14;126332;1098;107842;-80
2023/09/12 10:06:55;;;;;;;6.67;3.40;;;;;;;25.98;36.85;100678.53;125462;1097;102361;-83
2023/09/12 10:09:27;;;;;;;7.77;3.20;;;;;;;25.99;36.80;100672.20;124816;1099;104137;-81
2023/09/12 10:11:58;;;;;;;10.73;3.50;;;;;;;26.03;36.62;100673.91;126032;1098;101771;-82
2023/09/12 10:14:30;;;;;;;6.47;3.10;;;;;;;26.06;36.41;100671.14;125969;1099;119393;-80
2023/09/12 10:17:08;;;;;;;7.50;3.33;;;;;;;26.13;36.40;100667.37;125576;1099;101969;-84
2023/09/12 10:19:43;;;;;;;6.40;3.20;;;;;;;26.17;35.25;100663.66;125512;1099;104268;-82
2023/09/12 10:22:21;;;;;;;6.17;3.30;;;;;;;26.24;35.39;100668.88;125456;1099;101979;-80
2023/09/12 10:24:52;;;;;;;4.03;2.53;;;;;;;26.28;35.54;100659.81;125821;1098;104159;-78
2023/09/12 10:27:30;;;;;;;5.40;3.07;;;;;;;26.32;35.45;100661.52;124678;1099;104331;-78
2023/09/12 10:30:00;;;;;;;3.60;2.80;;;;;;;26.37;34.86;100649.69;126058;1098;101847;-82
2023/09/12 10:32:35;;;;;;;5.43;3.23;;;;;;;26.38;35.25;100661.31;124650;1099;104217;-77
2023/09/12 10:35:06;;;;;;;6.77;3.30;;;;;;;26.35;34.63;100658.70;124884;1098;109376;-80
2023/09/12 10:37:43;;;;;;;5.90;3.27;;;;;;;26.36;34.53;100658.66;124926;1099;101882;-83
2023/09/12 10:40:16;;;;;;;6.13;2.87;;;;;;;26.41;34.64;100655.85;125582;1099;101945;-81
2023/09/12 10:42:48;;;;;;;9.55;3.30;;;;;;;26.41;34.66;100647.78;125855;1098;101929;-80
2023/09/12 10:51:06;;;;;;;7.40;3.00;;;;;;;26.57;34.80;100644.66;125405;1092;101929;-78
2023/09/12 10:54:13;;;;;;;13.30;3.50;;;;;;;26.52;34.21;100640.31;125206;1102;101951;-80
2023/09/12 10:56:50;;;;;;;10.23;3.53;;;;;;;26.54;33.96;100641.14;125502;1102;104172;-80
2023/09/12 10:59:35;;;;;;;9.77;3.27;;;;;;;26.62;34.52;100637.37;124997;1102;102276;-80
2023/09/12 11:02:31;;;;;;;8.87;3.40;;;;;;;26.67;34.56;100636.31;116385;1102;10001754;-79
2023/09/12 11:05:03;;;;;;;8.40;3.27;;;;;;;26.68;34.25;100632.71;124614;1102;102010;-77
2023/09/12 11:07:44;;;;;;;7.40;3.15;;;;;;;26.72;34.19;100631.70;124806;1102;104182;-82
2023/09/12 11:10:25;;;;;;;6.97;3.30;;;;;;;26.74;33.75;100626.28;124501;1102;104192;-77
2023/09/12 11:12:59;;;;;;;5.75;3.27;;;;;;;26.74;33.69;100626.28;124847;1102;104274;-80
2023/09/12 11:15:34;;;;;;;8.30;3.30;;;;;;;26.72;33.09;100622.73;125224;1102;101944;-77
2023/09/12 11:18:20;;;;;;;8.17;3.40;;;;;;;26.71;33.46;100632.63;125170;1105;102567;-75
2023/09/12 11:20:59;;;;;;;11.37;3.47;;;;;;;26.73;32.43;100624.50;123941;1102;104364;-76
2023/09/12 11:23:59;;;;;;;8.10;3.03;;;;;;;26.76;32.93;100626.23;124290;1102;104273;-77
2023/09/12 11:26:38;;;;;;;8.63;3.60;;;;;;;26.77;32.22;100628.88;125455;1102;110780;-78
2023/09/12 11:32:36;;;;;;;6.10;3.17;;;;;;;26.76;32.22;100619.03;124247;1102;101982;-74
2023/09/12 11:35:35;;;;;;;5.43;3.10;;;;;;;26.77;32.28;100626.19;124257;1102;104234;-76
2023/09/12 11:38:18;;;;;;;9.63;3.00;;;;;;;26.79;31.67;100618.94;124274;1102;104232;-78
2023/09/12 11:41:11;;;;;;;7.13;3.63;;;;;;;26.82;31.89;100612.59;124472;1102;102071;-80
2023/09/12 11:43:57;;;;;;;8.30;3.30;;;;;;;26.84;31.72;100616.11;124967;1102;102072;-80
2023/09/12 11:46:29;;;;;;;5.70;2.87;;;;;;;26.82;30.80;100616.16;125056;1102;104264;-77
2023/09/12 11:49:04;;;;;;;11.23;3.23;;;;;;;26.85;31.30;100615.20;124125;1106;102153;-78
2023/09/12 11:51:50;;;;;;;8.03;3.40;;;;;;;26.83;31.08;100601.78;124800;1102;103419;-80
2023/09/12 11:54:31;;;;;;;8.20;3.40;;;;;;;26.83;30.72;100608.95;124321;1106;104169;-78